Latest Weather Observations for Gatton

IDQ60801

Issued at 6:31 pm EST Monday 31 August 2015 (issued every 30 minutes, with the page automatically refreshed every 10 minutes)

About weather observations | Map of weather stations | Latest weather observations for QLD | Other Formats
Station Details ID: 040082 Name: UNIVERSITY OF QUEENSLAND GATTON Lat: -27.54 Lon: 152.34 Height: 89.0 m
Data from the previous 72 hours. | See also: Recent months at Gatton
Date/Time
EST
Temp
°C
App
Temp
°C
Dew
Point
Rel
Hum
%
Delta-T
°C
Wind Press
QNH
hPa
Press
MSL
hPa
Rain
since 9 am
mm
Dir
 
Spd
km/h
Gust
km/h
Spd
kts
Gust
kts
31/06:30pm 15.1 11.0 2.0 41 5.8 W 13 17 7 9 - - 0.0
31/06:00pm 16.9 13.1 1.8 36 6.8 W 11 15 6 8 - - 0.0
31/05:30pm 18.5 14.3 1.5 32 7.7 W 13 19 7 10 - - 0.0
31/05:00pm 20.6 15.7 -0.7 24 9.4 WSW 15 24 8 13 - - 0.0
31/04:30pm 21.2 15.5 -0.7 23 9.7 W 19 30 10 16 - - 0.0
31/04:00pm 22.1 16.8 -0.6 22 10.1 WSW 17 30 9 16 - - 0.0
31/03:30pm 21.9 15.8 -2.7 19 10.5 W 20 33 11 18 - - 0.0
31/03:00pm 22.0 16.2 -0.1 23 9.9 W 20 33 11 18 - - 0.0
31/02:30pm 22.0 16.1 -0.7 22 10.1 W 20 28 11 15 - - 0.0
31/02:00pm 22.0 15.6 -2.0 20 10.4 W 22 32 12 17 - - 0.0
31/01:30pm 22.0 16.3 0.5 24 9.8 W 20 35 11 19 - - 0.0
31/01:00pm 22.0 17.5 2.2 27 9.3 W 15 28 8 15 - - 0.0
31/12:30pm 21.3 16.3 1.6 27 9.1 W 17 26 9 14 - - 0.0
31/12:00pm 21.3 17.2 2.1 28 9.0 W 13 20 7 11 - - 0.0
31/11:30am 20.7 16.4 3.4 32 8.3 W 15 24 8 13 - - 0.0
31/11:00am 20.5 17.0 5.3 37 7.5 W 13 20 7 11 - - 0.0
31/10:30am 19.4 15.8 5.1 39 7.0 W 13 17 7 9 - - 0.0
31/10:00am 18.1 14.0 4.3 40 6.6 W 15 22 8 12 - - 0.0
31/09:30am 16.7 11.8 4.1 43 5.9 W 19 24 10 13 - - 0.0
31/09:00am 15.8 10.7 4.2 46 5.4 W 20 28 11 15 - - 0.0
31/08:30am 14.7 10.3 4.7 51 4.7 W 17 22 9 12 - - 0.0
31/08:00am 12.7 7.9 4.7 58 3.7 W 19 26 10 14 - - 0.0
31/07:30am 10.8 6.3 4.3 64 2.9 WSW 17 24 9 13 - - 0.0
31/07:00am 9.2 5.0 3.6 68 2.4 WSW 15 20 8 11 - - 0.0
31/06:30am 7.7 3.8 3.2 73 1.9 WSW 13 17 7 9 - - 0.0
31/06:00am 7.6 3.7 3.3 74 1.8 W 13 17 7 9 - - 0.0
31/05:30am 8.2 4.6 2.9 69 2.3 W 11 15 6 8 - - 0.0
31/05:00am 9.3 5.3 2.9 64 2.7 W 13 17 7 9 - - 0.0
31/04:30am 10.0 5.6 2.8 61 3.1 W 15 22 8 12 - - 0.0
31/04:00am 10.1 5.0 3.2 62 3.0 W 19 22 10 12 - - 0.0
31/03:30am 9.5 5.2 3.0 64 2.8 W 15 20 8 11 - - 0.0
31/03:00am 10.1 5.7 2.9 61 3.1 W 15 20 8 11 - - 0.0
31/02:30am 10.7 6.4 3.0 59 3.4 W 15 20 8 11 - - 0.0
31/02:00am 11.0 6.7 3.1 58 3.5 W 15 20 8 11 - - 0.0
31/01:30am 11.5 6.4 3.3 57 3.6 W 19 26 10 14 - - 0.0
31/01:00am 11.4 6.4 3.7 59 3.4 W 19 24 10 13 - - 0.0
31/12:30am 11.5 7.0 4.0 60 3.4 W 17 26 9 14 - - 0.0
31/12:00am 12.3 7.4 4.0 57 3.8 W 19 24 10 13 - - 0.0
 
Date/Time
EST
Temp
°C
App
Temp
°C
Dew
Point
Rel
Hum
%
Delta-T
°C
Wind Press
QNH
hPa
Press
MSL
hPa
Rain
since 9 am
mm
Dir
 
Spd
km/h
Gust
km/h
Spd
kts
Gust
kts
30/11:30pm 12.2 7.7 4.4 59 3.6 W 17 24 9 13 - - 0.0
30/11:00pm 12.0 7.6 4.5 60 3.4 W 17 20 9 11 - - 0.0
30/10:30pm 11.9 7.8 4.6 61 3.3 W 15 20 8 11 - - 0.0
30/10:00pm 12.2 7.8 4.9 61 3.4 W 17 20 9 11 - - 0.0
30/09:30pm 12.4 8.0 4.9 60 3.5 W 17 22 9 12 - - 0.0
30/09:00pm 12.3 8.3 5.0 61 3.4 W 15 20 8 11 - - 0.0
30/08:30pm 12.7 9.1 4.9 59 3.6 WSW 13 17 7 9 - - 0.0
30/08:00pm 13.4 9.8 5.1 57 3.9 W 13 17 7 9 - - 0.0
30/07:30pm 14.2 10.2 5.0 54 4.3 W 15 19 8 10 - - 0.0
30/07:00pm 14.6 10.9 4.6 51 4.7 W 13 17 7 9 - - 0.0
30/06:30pm 15.4 11.7 4.5 48 5.1 W 13 19 7 10 - - 0.0
30/06:00pm 16.3 11.9 4.7 46 5.5 W 17 22 9 12 - - 0.0
30/05:30pm 17.4 12.6 4.4 42 6.2 W 19 24 10 13 - - 0.0
30/05:00pm 19.1 14.2 4.1 37 7.2 W 19 28 10 15 - - 0.0
30/04:30pm 20.1 14.9 3.3 33 8.0 WSW 20 30 11 16 - - 0.0
30/04:00pm 21.0 15.9 3.2 31 8.5 WSW 19 26 10 14 - - 0.0
30/03:30pm 20.8 14.4 3.1 31 8.4 W 26 41 14 22 - - 0.0
30/03:00pm 21.3 15.0 4.0 32 8.4 W 26 41 14 22 - - 0.0
30/02:30pm 21.4 15.4 3.6 31 8.6 W 24 39 13 21 - - 0.0
30/02:00pm 21.2 14.8 3.4 31 8.5 W 26 43 14 23 - - 0.0
30/01:30pm 21.0 15.0 3.2 31 8.5 W 24 39 13 21 - - 0.0
30/01:00pm 20.6 15.1 4.2 34 7.9 SW 22 37 12 20 - - 0.0
30/12:30pm 20.6 13.6 4.2 34 7.9 W 30 46 16 25 - - 0.0
30/12:00pm 19.8 13.8 5.1 38 7.2 W 26 37 14 20 - - 0.0
30/11:30am 19.2 13.6 5.6 41 6.7 SW 24 35 13 19 - - 0.0
30/11:00am 18.9 13.1 6.1 43 6.4 SW 26 35 14 19 - - 0.0
30/10:30am 18.3 12.2 4.8 41 6.5 WSW 26 39 14 21 - - 0.0
30/10:00am 18.0 12.3 6.5 47 5.7 SW 26 39 14 21 - - 0.0
30/09:30am 17.5 11.5 7.0 50 5.3 WSW 28 41 15 22 - - 0.0
30/09:00am 16.8 11.8 8.2 57 4.4 W 24 32 13 17 - - 14.6
30/08:30am 15.8 11.7 8.8 63 3.6 W 20 30 11 16 - - 14.6
30/08:00am 14.3 10.5 8.9 70 2.7 W 19 24 10 13 - - 14.6
30/07:30am 12.9 8.9 8.2 73 2.3 W 19 28 10 15 - - 14.6
30/07:00am 13.0 9.9 8.7 75 2.2 WSW 15 20 8 11 - - 14.6
30/06:30am 12.4 10.0 8.5 77 1.9 WSW 11 17 6 9 - - 14.6
30/06:00am 12.8 9.4 9.1 78 1.9 W 17 22 9 12 - - 14.6
30/05:30am 12.7 9.4 9.5 81 1.6 W 17 22 9 12 - - 14.6
30/05:00am 12.9 10.1 9.9 82 1.5 W 15 19 8 10 - - 14.6
30/04:30am 12.6 11.0 10.3 86 1.2 W 9 15 5 8 - - 14.6
30/04:00am 12.7 10.8 10.6 87 1.1 WSW 11 17 6 9 - - 14.6
30/03:30am 13.1 11.5 11.5 90 0.9 WSW 11 15 6 8 - - 14.6
30/03:00am 13.3 11.7 11.7 90 0.9 W 11 15 6 8 - - 14.4
30/02:30am 13.3 12.2 12.0 92 0.7 W 9 15 5 8 - - 14.4
30/02:00am 13.2 12.1 12.1 93 0.6 W 9 15 5 8 - - 14.4
30/01:30am 13.0 11.9 11.9 93 0.6 WNW 9 13 5 7 - - 14.4
30/01:00am 13.0 13.2 11.7 92 0.7 W 2 6 1 3 - - 14.4
30/12:30am 13.1 11.3 12.0 93 0.6 W 13 17 7 9 - - 14.4
30/12:00am 13.1 12.1 12.2 94 0.5 WSW 9 13 5 7 - - 14.4
 
Date/Time
EST
Temp
°C
App
Temp
°C
Dew
Point
Rel
Hum
%
Delta-T
°C
Wind Press
QNH
hPa
Press
MSL
hPa
Rain
since 9 am
mm
Dir
 
Spd
km/h
Gust
km/h
Spd
kts
Gust
kts
29/11:30pm 13.1 12.0 12.0 93 0.6 W 9 13 5 7 - - 14.4
29/11:00pm 13.1 12.0 12.0 93 0.6 WSW 9 11 5 6 - - 14.4
29/10:30pm 13.2 12.1 12.1 93 0.6 W 9 15 5 8 - - 14.4
29/10:00pm 13.3 12.3 12.2 93 0.6 WSW 9 13 5 7 - - 14.4
29/09:30pm 13.4 12.4 12.3 93 0.6 WSW 9 11 5 6 - - 14.4
29/09:00pm 13.4 12.4 12.3 93 0.6 W 9 11 5 6 - - 14.4
29/08:30pm 13.4 12.0 12.3 93 0.6 W 11 15 6 8 - - 14.2
29/08:00pm 13.3 12.3 12.2 93 0.6 W 9 13 5 7 - - 14.2
29/07:30pm 13.4 13.0 12.3 93 0.6 WNW 6 7 3 4 - - 13.8
29/07:00pm 13.4 12.3 12.0 91 0.8 WNW 9 11 5 6 - - 12.6
29/06:30pm 13.5 12.8 12.1 91 0.8 WNW 7 11 4 6 - - 11.8
29/06:00pm 13.6 13.0 12.2 91 0.8 WSW 7 11 4 6 - - 10.8
29/05:30pm 13.8 11.5 11.8 88 1.1 W 15 20 8 11 - - 10.0
29/05:00pm 14.6 11.4 11.9 84 1.5 W 20 30 11 16 - - 8.4
29/04:30pm 16.2 15.3 14.9 92 0.8 W 13 20 7 11 - - 6.0
29/04:00pm 16.5 16.7 14.7 89 1.0 WNW 7 11 4 6 - - 5.0
29/03:30pm 17.0 16.8 14.6 86 1.4 WNW 9 11 5 6 - - 2.4
29/03:00pm 19.7 21.1 14.5 72 3.0 CALM 0 6 0 3 - - 0.2
29/02:30pm 20.5 19.8 12.0 58 4.8 ENE 7 11 4 6 - - 0.0
29/02:00pm 21.0 18.9 11.3 54 5.4 NE 13 17 7 9 - - 0.0
29/01:30pm 21.1 19.4 11.2 53 5.5 NE 11 15 6 8 - - 0.0
29/01:00pm 20.6 19.4 11.5 56 5.1 NE 9 15 5 8 - - 0.0
29/12:30pm 20.1 18.8 11.1 56 5.0 NE 9 15 5 8 - - 0.0
29/12:00pm 20.6 19.4 11.5 56 5.1 NE 9 13 5 7 - - 0.0
29/11:30am 20.4 19.6 11.1 55 5.1 ESE 6 11 3 6 - - 0.0
29/11:00am 19.3 18.2 9.8 54 5.1 E 6 9 3 5 - - 0.0
29/10:30am 18.8 17.8 8.7 52 5.3 SSW 4 7 2 4 - - 0.0
29/10:00am 17.3 16.1 7.9 54 4.8 SW 4 9 2 5 - - 0.0
29/09:30am 15.5 13.1 7.0 57 4.2 W 9 11 5 6 - - 0.0
29/09:00am 13.4 11.1 7.4 67 2.9 W 9 11 5 6 - - 0.0
29/08:30am 11.4 8.9 6.5 72 2.3 W 9 11 5 6 - - 0.0
29/08:00am 9.9 7.5 6.8 81 1.5 W 9 13 5 7 - - 0.0
29/07:30am 8.5 5.8 5.8 83 1.2 W 9 13 5 7 - - 0.0
29/07:00am 7.6 5.2 5.4 86 1.0 W 7 11 4 6 - - 0.0
29/06:30am 7.1 4.2 4.9 86 1.0 W 9 13 5 7 - - 0.0
29/06:00am 7.0 3.8 5.0 87 0.9 W 11 15 6 8 - - 0.0
29/05:30am 6.9 4.0 4.9 87 0.9 W 9 13 5 7 - - 0.0
29/05:00am 7.3 4.5 5.3 87 0.9 W 9 13 5 7 - - 0.0
29/04:30am 6.5 4.1 4.5 87 0.9 W 6 7 3 4 - - 0.0
29/04:00am 6.8 4.8 4.5 85 1.0 W 4 6 2 3 - - 0.0
29/03:30am 8.0 4.8 5.3 83 1.2 W 11 13 6 7 - - 0.0
29/03:00am 7.7 4.9 5.2 84 1.1 W 9 11 5 6 - - 0.0
29/02:30am 8.2 4.7 5.3 82 1.3 WSW 13 15 7 8 - - 0.0
29/02:00am 8.5 5.1 5.8 83 1.2 W 13 15 7 8 - - 0.0
29/01:30am 8.0 5.1 4.9 81 1.4 WSW 9 13 5 7 - - 0.0
29/01:00am 8.4 5.2 5.3 81 1.4 WSW 11 13 6 7 - - 0.0
29/12:30am 9.5 6.8 5.7 77 1.7 WSW 9 13 5 7 - - 0.0
29/12:00am 10.1 7.0 5.7 74 2.0 W 11 15 6 8 - - 0.0
 
Date/Time
EST
Temp
°C
App
Temp
°C
Dew
Point
Rel
Hum
%
Delta-T
°C
Wind Press
QNH
hPa
Press
MSL
hPa
Rain
since 9 am
mm
Dir
 
Spd
km/h
Gust
km/h
Spd
kts
Gust
kts
28/11:30pm 11.2 7.9 6.3 72 2.3 W 13 17 7 9 - - 0.0
28/11:00pm 10.8 7.8 6.0 72 2.2 WSW 11 15 6 8 - - 0.0
28/10:30pm 11.2 8.6 5.9 70 2.5 SW 9 13 5 7 - - 0.0
28/10:00pm 10.3 7.6 5.5 72 2.2 WSW 9 13 5 7 - - 0.0
28/09:30pm 11.3 8.6 5.6 68 2.6 W 9 13 5 7 - - 0.0
28/09:00pm 12.6 9.6 5.8 63 3.2 W 11 15 6 8 - - 0.0
28/08:30pm 12.7 9.7 5.8 63 3.3 W 11 17 6 9 - - 0.0
28/08:00pm 12.9 9.5 6.0 63 3.3 W 13 17 7 9 - - 0.0
28/07:30pm 12.8 10.7 5.7 62 3.3 SSW 6 11 3 6 - - 0.0
28/07:00pm 14.9 11.9 6.0 55 4.3 W 11 15 6 8 - - 0.0

Other Formats:

Comma delimited format used in spreadsheet applications
http://www.bom.gov.au/fwo/IDQ60801/IDQ60801.94562.axf

JavaScript Object Notation format (JSON) in row-major order
http://www.bom.gov.au/fwo/IDQ60801/IDQ60801.94562.json